Time;durP1;ratioP1;P1;durP2;ratioP2;P2;SDS_P1;SDS_P2;PMS_P1;PMS_P2;Temp;Humidity;BMP_temperature;BMP_pressure;BME280_temperature;BME280_humidity;BME280_pressure;Samples;Min_cycle;Max_cycle;Signal;HPM_P1;HPM_P2
2022/02/08 00:01:21;;;;;;;6.07;1.92;;;;;;;;;;5133661;28;20062;-77
2022/02/08 00:03:48;;;;;;;8.90;2.13;;;;;;;;;;5132961;28;20043;-78
2022/02/08 00:06:32;;;;;;;8.27;2.22;;;;;;;;;;5132559;28;20475;-77
2022/02/08 00:08:58;;;;;;;7.55;2.33;;;;;;;;;;5133489;28;20054;-77
2022/02/08 00:11:25;;;;;;;6.68;1.98;;;;;;;;;;5133053;28;20077;-77
2022/02/08 00:13:51;;;;;;;4.15;1.70;;;;;;;;;;5132005;28;20459;-77
2022/02/08 00:16:18;;;;;;;4.72;2.10;;;;;;;;;;5133675;28;20131;-77
2022/02/08 00:18:46;;;;;;;3.13;1.58;;;;;;;;;;5132327;28;20067;-77
2022/02/08 00:21:12;;;;;;;7.88;2.17;;;;;;;;;;5132333;28;20546;-77
2022/02/08 00:23:39;;;;;;;7.13;2.45;;;;;;;;;;5127580;28;20134;-78
2022/02/08 00:26:05;;;;;;;5.97;2.58;;;;;;;;;;5119965;28;20476;-78
2022/02/08 00:28:32;;;;;;;8.00;2.67;;;;;;;;;;5118828;28;20123;-78
2022/02/08 00:30:58;;;;;;;4.15;1.88;;;;;;;;;;5120976;28;20098;-78
2022/02/08 00:33:25;;;;;;;6.10;1.83;;;;;;;;;;5119446;28;20502;-78
2022/02/08 00:35:53;;;;;;;8.23;1.92;;;;;;;;;;5119355;28;20067;-78
2022/02/08 00:38:19;;;;;;;3.80;1.50;;;;;;;;;;5119970;28;20081;-78
2022/02/08 00:40:48;;;;;;;7.22;1.85;;;;;;;;;;5120634;28;20071;-78
2022/02/08 00:43:21;;;;;;;9.27;2.20;;;;;;;;;;5119644;28;20441;-78
2022/02/08 00:45:52;;;;;;;7.45;2.90;;;;;;;;;;5119033;28;20047;-78
2022/02/08 00:48:28;;;;;;;6.15;2.17;;;;;;;;;;5119725;28;20040;-78
2022/02/08 00:50:56;;;;;;;6.78;2.10;;;;;;;;;;5120212;28;20044;-78
2022/02/08 00:53:22;;;;;;;4.32;1.85;;;;;;;;;;5119934;28;20102;-78
2022/02/08 00:55:49;;;;;;;6.95;2.03;;;;;;;;;;5119981;28;20130;-78
2022/02/08 00:58:15;;;;;;;7.15;2.00;;;;;;;;;;5119741;28;20431;-78
2022/02/08 01:00:42;;;;;;;8.10;1.77;;;;;;;;;;5120202;28;20071;-78
2022/02/08 01:03:09;;;;;;;6.93;2.10;;;;;;;;;;5119613;28;20090;-78
2022/02/08 01:05:41;;;;;;;5.25;1.80;;;;;;;;;;5120115;28;20074;-78
2022/02/08 01:08:09;;;;;;;9.45;5.38;;;;;;;;;;5120546;28;20035;-78
2022/02/08 01:10:36;;;;;;;7.38;2.72;;;;;;;;;;5120406;28;20089;-78
2022/02/08 01:13:03;;;;;;;7.50;2.33;;;;;;;;;;5123054;28;20047;-77
2022/02/08 01:15:29;;;;;;;5.38;2.40;;;;;;;;;;5127021;28;20047;-77
2022/02/08 01:17:58;;;;;;;8.73;2.28;;;;;;;;;;5127217;28;20043;-77
2022/02/08 01:20:31;;;;;;;10.10;2.08;;;;;;;;;;5125360;28;20093;-77
2022/02/08 01:22:58;;;;;;;4.85;2.00;;;;;;;;;;5120222;28;20135;-78
2022/02/08 01:25:31;;;;;;;5.65;1.90;;;;;;;;;;5115312;28;20512;-78
2022/02/08 01:28:06;;;;;;;3.33;1.60;;;;;;;;;;5118504;28;20039;-78
2022/02/08 01:30:44;;;;;;;7.33;3.10;;;;;;;;;;5118478;28;20040;-78
2022/02/08 01:33:35;;;;;;;9.10;1.80;;;;;;;;;;5117140;28;20103;-78
2022/02/08 01:36:23;;;;;;;7.32;1.73;;;;;;;;;;5117077;28;20048;-77
2022/02/08 01:38:56;;;;;;;5.72;2.00;;;;;;;;;;5118047;28;20039;-78
2022/02/08 01:41:36;;;;;;;7.32;1.90;;;;;;;;;;5117933;28;20044;-77
2022/02/08 01:44:13;;;;;;;6.05;1.85;;;;;;;;;;5113647;28;20043;-80
2022/02/08 01:46:56;;;;;;;8.30;1.77;;;;;;;;;;5101352;28;20043;-78
2022/02/08 01:49:33;;;;;;;3.53;1.45;;;;;;;;;;5097274;28;20083;-77
2022/02/08 01:52:00;;;;;;;6.57;1.80;;;;;;;;;;5097426;28;20040;-77
2022/02/08 01:54:27;;;;;;;8.70;1.95;;;;;;;;;;5097467;28;20098;-77
2022/02/08 01:56:56;;;;;;;5.38;2.83;;;;;;;;;;5102216;28;20078;-78
2022/02/08 01:59:23;;;;;;;6.43;1.65;;;;;;;;;;5109362;28;20053;-78
2022/02/08 02:01:50;;;;;;;6.97;1.40;;;;;;;;;;5117608;28;20079;-77
2022/02/08 02:04:16;;;;;;;3.75;1.77;;;;;;;;;;5116610;28;20075;-77
2022/02/08 02:06:43;;;;;;;5.28;2.33;;;;;;;;;;5117373;28;20427;-77
2022/02/08 02:09:10;;;;;;;8.45;1.90;;;;;;;;;;5117776;28;20134;-77
2022/02/08 02:11:36;;;;;;;5.95;2.05;;;;;;;;;;5117106;28;20067;-77
2022/02/08 02:14:04;;;;;;;3.15;1.70;;;;;;;;;;5116044;28;20086;-77
2022/02/08 02:16:41;;;;;;;7.28;2.40;;;;;;;;;;5114902;28;20493;-77
2022/02/08 02:19:07;;;;;;;7.38;2.60;;;;;;;;;;5117137;28;20050;-77
2022/02/08 02:21:34;;;;;;;8.30;2.33;;;;;;;;;;5117997;28;20067;-78
2022/02/08 02:24:02;;;;;;;4.60;1.52;;;;;;;;;;5118117;28;20078;-78
2022/02/08 02:26:28;;;;;;;7.07;2.00;;;;;;;;;;5115551;28;20086;-78
2022/02/08 02:28:55;;;;;;;7.93;1.85;;;;;;;;;;5117375;28;20074;-78
2022/02/08 02:31:21;;;;;;;5.55;1.55;;;;;;;;;;5117569;28;20043;-78
2022/02/08 02:33:48;;;;;;;7.70;2.40;;;;;;;;;;5116613;28;20057;-78
2022/02/08 02:36:14;;;;;;;4.50;1.70;;;;;;;;;;5117609;28;20075;-78
2022/02/08 02:38:41;;;;;;;3.13;1.50;;;;;;;;;;5117008;28;20439;-78
2022/02/08 02:41:09;;;;;;;9.73;2.08;;;;;;;;;;5114779;28;20036;-78
2022/02/08 02:43:36;;;;;;;7.07;2.10;;;;;;;;;;5117882;28;20089;-78
2022/02/08 02:46:04;;;;;;;5.35;1.85;;;;;;;;;;5117327;28;20089;-78
2022/02/08 02:48:30;;;;;;;6.43;2.10;;;;;;;;;;5094831;28;20058;-78
2022/02/08 02:50:57;;;;;;;5.40;1.75;;;;;;;;;;5096485;28;20044;-78
2022/02/08 02:53:25;;;;;;;5.45;1.80;;;;;;;;;;5099337;28;20070;-77
2022/02/08 02:55:52;;;;;;;8.10;1.90;;;;;;;;;;5116979;28;20448;-78
2022/02/08 02:58:24;;;;;;;4.38;1.80;;;;;;;;;;5116464;28;20385;-78
2022/02/08 03:01:04;;;;;;;9.48;1.63;;;;;;;;;;5116688;28;20405;-78
2022/02/08 03:03:44;;;;;;;4.45;1.58;;;;;;;;;;5112997;28;20483;-78
2022/02/08 03:19:48;;;;;;;9.48;1.50;;;;;;;;;;5074104;28;20043;-78
2022/02/08 03:22:15;;;;;;;5.47;2.15;;;;;;;;;;5075411;28;20083;-78
2022/02/08 03:24:41;;;;;;;4.20;1.50;;;;;;;;;;5076453;28;20072;-78
2022/02/08 03:27:08;;;;;;;4.47;1.45;;;;;;;;;;5076342;28;20060;-78
2022/02/08 03:29:35;;;;;;;9.38;2.22;;;;;;;;;;5066248;28;20088;-78
2022/02/08 03:32:09;;;;;;;7.63;2.30;;;;;;;;;;5063349;28;20136;-78
2022/02/08 03:34:36;;;;;;;8.02;1.98;;;;;;;;;;5068089;28;20115;-78
2022/02/08 03:37:03;;;;;;;6.22;1.70;;;;;;;;;;5074857;28;20052;-78
2022/02/08 03:39:35;;;;;;;7.90;2.08;;;;;;;;;;5075213;28;20540;-78
2022/02/08 03:42:08;;;;;;;6.13;2.15;;;;;;;;;;5074886;28;20543;-78
2022/02/08 03:44:36;;;;;;;7.50;1.92;;;;;;;;;;5076165;28;20094;-78
2022/02/08 03:47:06;;;;;;;4.70;1.52;;;;;;;;;;5071131;28;20530;-78
2022/02/08 03:49:34;;;;;;;3.45;1.52;;;;;;;;;;5075267;28;20045;-78
2022/02/08 03:52:04;;;;;;;5.25;1.60;;;;;;;;;;5076268;28;20083;-78
2022/02/08 03:54:31;;;;;;;3.20;1.60;;;;;;;;;;5076087;28;20040;-78
2022/02/08 03:56:58;;;;;;;5.90;1.77;;;;;;;;;;5075561;28;20095;-78
2022/02/08 03:59:24;;;;;;;5.88;1.90;;;;;;;;;;5077092;28;20380;-79
2022/02/08 04:04:48;;;;;;;5.70;1.98;;;;;;;;;;5079502;28;20126;-78
2022/02/08 04:07:18;;;;;;;4.60;1.58;;;;;;;;;;5079649;28;20056;-78
2022/02/08 04:09:45;;;;;;;4.65;1.50;;;;;;;;;;5064921;28;20385;-77
2022/02/08 04:12:18;;;;;;;5.60;1.70;;;;;;;;;;5060695;28;20079;-78
2022/02/08 04:14:51;;;;;;;4.35;1.55;;;;;;;;;;5079200;28;20040;-77
2022/02/08 04:17:31;;;;;;;7.65;1.63;;;;;;;;;;5079326;28;20048;-78
2022/02/08 04:31:23;;;;;;;8.15;1.70;;;;;;;;;;5079052;28;20074;-78
2022/02/08 04:31:38;;;;;;;6.57;1.70;;;;;;;;;;5092574;28;20531;-77
2022/02/08 04:34:25;;;;;;;9.68;1.83;;;;;;;;;;5078132;28;20473;-78
2022/02/08 04:37:30;;;;;;;5.97;1.45;;;;;;;;;;5078750;28;20051;-77
2022/02/08 04:40:10;;;;;;;4.63;1.45;;;;;;;;;;5078118;28;20119;-78
2022/02/08 04:42:44;;;;;;;3.58;1.27;;;;;;;;;;5078435;28;20063;-77
2022/02/08 04:45:17;;;;;;;9.63;1.75;;;;;;;;;;5076897;28;20040;-77
2022/02/08 04:47:57;;;;;;;5.63;1.88;;;;;;;;;;5089924;28;20036;-78
2022/02/08 04:50:28;;;;;;;5.18;2.05;;;;;;;;;;5097748;28;20472;-78
2022/02/08 04:53:00;;;;;;;6.90;2.38;;;;;;;;;;5098371;28;20429;-78
2022/02/08 04:55:36;;;;;;;5.78;2.10;;;;;;;;;;5092277;28;20052;-77
2022/02/08 04:58:15;;;;;;;6.50;1.92;;;;;;;;;;5077962;28;20040;-77
2022/02/08 05:00:47;;;;;;;5.80;1.40;;;;;;;;;;5078476;28;20044;-77
2022/02/08 05:42:19;;;;;;;5.78;1.85;;;;;;;;;;5078602;28;20482;-78
2022/02/08 05:44:53;;;;;;;3.83;1.10;;;;;;;;;;5078043;28;20040;-78
2022/02/08 05:47:20;;;;;;;4.90;1.77;;;;;;;;;;5077316;28;20044;-79
2022/02/08 05:49:51;;;;;;;3.50;1.30;;;;;;;;;;5078588;28;20075;-78
2022/02/08 05:52:44;;;;;;;5.10;2.13;;;;;;;;;;5058633;28;20037;-79
2022/02/08 05:55:10;;;;;;;4.55;1.65;;;;;;;;;;5057804;28;20380;-79
2022/02/08 05:57:38;;;;;;;3.45;1.15;;;;;;;;;;5058365;28;20069;-79
2022/02/08 06:00:05;;;;;;;3.53;1.45;;;;;;;;;;5058363;28;20041;-78
2022/02/08 06:02:32;;;;;;;4.93;1.92;;;;;;;;;;5059833;28;20144;-78
2022/02/08 06:04:58;;;;;;;3.65;1.38;;;;;;;;;;5060668;28;20045;-78
2022/02/08 06:07:25;;;;;;;6.00;1.67;;;;;;;;;;5069815;28;20052;-78
2022/02/08 06:09:53;;;;;;;6.72;1.50;;;;;;;;;;5085051;28;20103;-78
2022/02/08 06:12:23;;;;;;;8.60;1.52;;;;;;;;;;5084737;28;20064;-78
2022/02/08 06:14:56;;;;;;;4.03;1.63;;;;;;;;;;5103726;28;20358;-79
2022/02/08 06:17:22;;;;;;;5.53;1.40;;;;;;;;;;5097572;28;20036;-79
2022/02/08 06:19:50;;;;;;;4.88;1.30;;;;;;;;;;5094078;28;20326;-78
2022/02/08 06:22:17;;;;;;;8.57;2.25;;;;;;;;;;5096477;28;20427;-78
2022/02/08 06:24:43;;;;;;;7.05;2.15;;;;;;;;;;5092923;28;20067;-78
2022/02/08 06:27:10;;;;;;;5.70;1.50;;;;;;;;;;5096473;28;20072;-78
2022/02/08 06:29:38;;;;;;;7.07;2.65;;;;;;;;;;5094653;28;20114;-78
2022/02/08 06:32:05;;;;;;;4.32;1.08;;;;;;;;;;5079659;28;20473;-78
2022/02/08 06:34:32;;;;;;;3.55;1.10;;;;;;;;;;5091761;28;20086;-78
2022/02/08 06:37:00;;;;;;;4.68;1.48;;;;;;;;;;5094946;28;20040;-78
2022/02/08 06:39:33;;;;;;;10.57;2.40;;;;;;;;;;5095678;28;20476;-78
2022/02/08 06:41:59;;;;;;;8.00;1.80;;;;;;;;;;5096647;28;20040;-78
2022/02/08 06:44:26;;;;;;;6.20;2.30;;;;;;;;;;5093683;28;20106;-78
2022/02/08 06:46:53;;;;;;;7.20;2.00;;;;;;;;;;5099364;28;20039;-78
2022/02/08 06:49:20;;;;;;;5.45;2.13;;;;;;;;;;5117284;28;20050;-78
2022/02/08 06:51:47;;;;;;;4.88;2.00;;;;;;;;;;5117080;28;20036;-78
2022/02/08 06:54:13;;;;;;;7.80;2.00;;;;;;;;;;5117152;28;20126;-78
2022/02/08 06:56:40;;;;;;;4.28;1.30;;;;;;;;;;5100895;28;20098;-78
2022/02/08 06:59:08;;;;;;;4.85;1.63;;;;;;;;;;5095625;28;20123;-79
2022/02/08 07:01:37;;;;;;;4.65;1.60;;;;;;;;;;5096265;28;20044;-79
2022/02/08 07:04:08;;;;;;;4.95;1.63;;;;;;;;;;5096337;28;20044;-78
2022/02/08 07:06:35;;;;;;;4.43;1.60;;;;;;;;;;5096473;28;20040;-78
2022/02/08 07:09:02;;;;;;;8.70;2.42;;;;;;;;;;5095826;28;20059;-78
2022/02/08 07:11:28;;;;;;;7.70;2.88;;;;;;;;;;5096558;28;20079;-79
2022/02/08 07:13:56;;;;;;;6.93;2.20;;;;;;;;;;5096044;28;20534;-78
2022/02/08 07:16:23;;;;;;;21.20;2.70;;;;;;;;;;5096252;28;20079;-78
2022/02/08 07:18:49;;;;;;;5.65;1.58;;;;;;;;;;5096389;28;20127;-78
2022/02/08 07:21:17;;;;;;;9.32;1.55;;;;;;;;;;5100951;28;20480;-79
2022/02/08 07:23:43;;;;;;;4.30;1.67;;;;;;;;;;5100867;28;20071;-79
2022/02/08 07:26:10;;;;;;;4.63;1.50;;;;;;;;;;5100277;28;20506;-79
2022/02/08 07:28:41;;;;;;;5.68;1.52;;;;;;;;;;5100984;28;20079;-79
2022/02/08 07:31:14;;;;;;;4.85;1.85;;;;;;;;;;5100981;28;20043;-79
2022/02/08 07:33:46;;;;;;;3.88;1.58;;;;;;;;;;5101323;28;20044;-79
2022/02/08 07:36:22;;;;;;;4.53;1.40;;;;;;;;;;5105140;28;20055;-78
2022/02/08 07:38:51;;;;;;;3.67;1.10;;;;;;;;;;5104216;28;20044;-79
2022/02/08 07:41:37;;;;;;;4.43;1.33;;;;;;;;;;5103681;28;20044;-79
2022/02/08 07:44:05;;;;;;;2.78;1.20;;;;;;;;;;5104404;28;20040;-79
2022/02/08 07:46:32;;;;;;;3.70;1.17;;;;;;;;;;5103937;28;20079;-79
2022/02/08 07:48:59;;;;;;;6.13;2.03;;;;;;;;;;5103798;28;20075;-79
2022/02/08 07:51:25;;;;;;;6.95;2.28;;;;;;;;;;5103092;28;20044;-79
2022/02/08 07:53:53;;;;;;;7.60;2.30;;;;;;;;;;5101938;28;20069;-79
2022/02/08 07:56:20;;;;;;;2.42;1.30;;;;;;;;;;5101527;28;20064;-79
2022/02/08 07:58:46;;;;;;;5.55;1.67;;;;;;;;;;5099277;28;20494;-78
2022/02/08 08:01:13;;;;;;;5.75;1.92;;;;;;;;;;5100296;28;20079;-78
2022/02/08 08:03:42;;;;;;;6.38;1.63;;;;;;;;;;5099597;28;20071;-78
2022/02/08 08:06:09;;;;;;;5.15;0.90;;;;;;;;;;5098992;28;20044;-78
2022/02/08 08:08:36;;;;;;;5.07;1.60;;;;;;;;;;5099950;28;20075;-78
2022/02/08 08:11:08;;;;;;;4.55;1.10;;;;;;;;;;5099773;28;20075;-78
2022/02/08 08:13:40;;;;;;;4.13;1.23;;;;;;;;;;5091757;28;20435;-78
2022/02/08 08:16:17;;;;;;;7.55;4.47;;;;;;;;;;5099939;28;20039;-78
2022/02/08 08:18:59;;;;;;;3.75;1.10;;;;;;;;;;5099549;28;20079;-77
2022/02/08 08:21:26;;;;;;;6.85;1.42;;;;;;;;;;5099765;28;20425;-77
2022/02/08 08:23:59;;;;;;;9.38;2.03;;;;;;;;;;5098709;28;20040;-78
2022/02/08 08:26:26;;;;;;;8.05;2.80;;;;;;;;;;5099636;28;20044;-78
2022/02/08 08:28:53;;;;;;;5.32;1.38;;;;;;;;;;5099429;28;20076;-78
2022/02/08 08:31:20;;;;;;;6.05;2.20;;;;;;;;;;5099581;28;20086;-78
2022/02/08 08:33:46;;;;;;;6.72;1.77;;;;;;;;;;5099366;28;20072;-78
2022/02/08 08:36:16;;;;;;;8.38;1.65;;;;;;;;;;5098045;28;20062;-78
2022/02/08 08:38:43;;;;;;;5.40;1.67;;;;;;;;;;5099414;28;20040;-78
2022/02/08 08:41:21;;;;;;;4.63;1.50;;;;;;;;;;5099219;28;20044;-78
2022/02/08 08:44:16;;;;;;;7.53;2.22;;;;;;;;;;5098564;28;20465;-78
2022/02/08 08:52:08;;;;;;;3.85;1.30;;;;;;;;;;5097575;28;20040;-78
2022/02/08 08:54:34;;;;;;;4.85;1.30;;;;;;;;;;5098804;28;20067;-78
2022/02/08 08:57:01;;;;;;;6.80;1.17;;;;;;;;;;5098619;28;20044;-78
2022/02/08 08:59:29;;;;;;;4.90;1.25;;;;;;;;;;5099308;28;20071;-78
2022/02/08 09:01:55;;;;;;;4.45;1.92;;;;;;;;;;5098014;28;20439;-77
2022/02/08 09:04:23;;;;;;;6.88;1.67;;;;;;;;;;5099418;28;20079;-78
2022/02/08 09:06:50;;;;;;;4.70;0.98;;;;;;;;;;5098296;28;20066;-79
2022/02/08 09:09:20;;;;;;;5.28;1.27;;;;;;;;;;5098982;28;20043;-78
2022/02/08 09:12:01;;;;;;;5.18;1.33;;;;;;;;;;5098404;28;20036;-79
2022/02/08 09:14:44;;;;;;;5.07;1.20;;;;;;;;;;5098545;28;20054;-79
2022/02/08 09:20:11;;;;;;;3.90;2.08;;;;;;;;;;5097375;28;20039;-79
2022/02/08 09:22:59;;;;;;;5.88;1.75;;;;;;;;;;5097747;28;20123;-78
2022/02/08 09:28:20;;;;;;;4.95;1.60;;;;;;;;;;5097279;28;20372;-78
2022/02/08 09:30:52;;;;;;;5.32;1.52;;;;;;;;;;5098607;28;20040;-78
2022/02/08 09:33:19;;;;;;;2.95;1.35;;;;;;;;;;5098598;28;20055;-78
2022/02/08 09:35:46;;;;;;;3.80;0.98;;;;;;;;;;5098551;28;20075;-78
2022/02/08 09:38:12;;;;;;;3.47;1.50;;;;;;;;;;5098505;28;20055;-78
2022/02/08 09:40:39;;;;;;;5.55;1.60;;;;;;;;;;5099025;28;20040;-79
2022/02/08 09:43:06;;;;;;;5.68;1.63;;;;;;;;;;5097218;28;20513;-80
2022/02/08 09:45:34;;;;;;;7.45;1.15;;;;;;;;;;5098284;28;20082;-79
2022/02/08 09:48:08;;;;;;;5.70;1.85;;;;;;;;;;5097764;28;20040;-78
2022/02/08 09:50:37;;;;;;;5.63;1.20;;;;;;;;;;5091918;28;20062;-82
2022/02/08 09:53:12;;;;;;;5.57;1.25;;;;;;;;;;5101809;28;20051;-82
2022/02/08 09:55:41;;;;;;;6.70;1.70;;;;;;;;;;5083498;28;20040;-82
2022/02/08 09:58:09;;;;;;;7.75;1.80;;;;;;;;;;5083519;28;20040;-82
2022/02/08 10:00:38;;;;;;;6.13;1.55;;;;;;;;;;5101163;28;20115;-82
2022/02/08 10:03:08;;;;;;;5.40;1.52;;;;;;;;;;5098629;28;20036;-77
2022/02/08 10:05:45;;;;;;;3.30;1.13;;;;;;;;;;5098461;28;20086;-79
2022/02/08 10:08:12;;;;;;;5.38;1.40;;;;;;;;;;5098612;28;20043;-78
2022/02/08 10:10:39;;;;;;;4.80;1.27;;;;;;;;;;5098328;28;20472;-79
2022/02/08 10:13:29;;;;;;;8.82;3.25;;;;;;;;;;5099883;28;20084;-80
2022/02/08 10:21:44;;;;;;;3.85;1.35;;;;;;;;;;5098427;28;20066;-79
2022/02/08 10:24:11;;;;;;;16.50;5.13;;;;;;;;;;5099859;28;20040;-79
2022/02/08 10:26:42;;;;;;;7.20;2.10;;;;;;;;;;5099096;28;20545;-79
2022/02/08 10:29:20;;;;;;;2.60;1.30;;;;;;;;;;5099341;28;20085;-78
2022/02/08 10:32:19;;;;;;;2.80;1.05;;;;;;;;;;5099736;28;20051;-79
2022/02/08 10:37:39;;;;;;;3.60;1.15;;;;;;;;;;5100518;28;20106;-78
2022/02/08 10:40:08;;;;;;;5.20;1.00;;;;;;;;;;5100685;28;20044;-79
2022/02/08 10:42:35;;;;;;;4.05;1.90;;;;;;;;;;5099423;28;20067;-79
2022/02/08 10:45:04;;;;;;;5.55;1.02;;;;;;;;;;5098916;28;20048;-79
2022/02/08 10:47:35;;;;;;;5.10;1.52;;;;;;;;;;5098971;28;20430;-78
2022/02/08 10:50:05;;;;;;;2.83;1.10;;;;;;;;;;5098455;28;20075;-79
2022/02/08 10:52:32;;;;;;;3.30;0.88;;;;;;;;;;5090954;28;20040;-79
2022/02/08 10:55:06;;;;;;;4.72;1.33;;;;;;;;;;5099631;28;20074;-78
2022/02/08 10:57:44;;;;;;;2.53;0.88;;;;;;;;;;5102644;28;20058;-78
2022/02/08 11:00:11;;;;;;;4.88;1.40;;;;;;;;;;5105931;28;20051;-77
2022/02/08 11:02:43;;;;;;;5.18;1.25;;;;;;;;;;5105368;28;20040;-78
2022/02/08 11:05:19;;;;;;;2.83;0.90;;;;;;;;;;5106319;28;20109;-77
2022/02/08 11:08:06;;;;;;;4.88;1.45;;;;;;;;;;5101151;28;20036;-79
2022/02/08 11:10:51;;;;;;;4.57;1.27;;;;;;;;;;5099011;28;20044;-78
2022/02/08 11:13:34;;;;;;;4.50;1.25;;;;;;;;;;5098048;28;20433;-79
2022/02/08 11:16:13;;;;;;;6.38;1.45;;;;;;;;;;5099437;28;20043;-79
2022/02/08 11:18:46;;;;;;;2.58;1.10;;;;;;;;;;5096031;28;20040;-77
2022/02/08 11:21:24;;;;;;;4.63;1.08;;;;;;;;;;5073046;28;20733;-77
2022/02/08 11:24:01;;;;;;;2.88;1.08;;;;;;;;;;5056979;28;20053;-79
2022/02/08 11:26:29;;;;;;;5.78;1.10;;;;;;;;;;5064383;28;20523;-78
2022/02/08 11:28:56;;;;;;;6.47;1.75;;;;;;;;;;5065067;28;20040;-77
2022/02/08 11:31:28;;;;;;;4.25;1.40;;;;;;;;;;5062606;28;20045;-80
2022/02/08 11:34:09;;;;;;;7.78;2.53;;;;;;;;;;5060320;28;20080;-78
2022/02/08 11:39:51;;;;;;;2.65;0.88;;;;;;;;;;5048454;28;20051;-79
2022/02/08 11:45:37;;;;;;;4.03;1.20;;;;;;;;;;5079863;28;20044;-79
2022/02/08 11:48:18;;;;;;;7.15;1.95;;;;;;;;;;5077297;28;20066;-80
2022/02/08 11:51:05;;;;;;;4.43;1.30;;;;;;;;;;5073497;28;20480;-79
2022/02/08 11:53:41;;;;;;;3.55;2.00;;;;;;;;;;5063444;28;20477;-79
2022/02/08 11:56:43;;;;;;;3.90;1.10;;;;;;;;;;5067966;28;20051;-77
2022/02/08 11:59:27;;;;;;;2.70;0.80;;;;;;;;;;5075944;28;20542;-75
2022/02/08 12:02:35;;;;;;;5.32;0.98;;;;;;;;;;5085808;28;20476;-77
2022/02/08 12:05:01;;;;;;;4.30;0.98;;;;;;;;;;5082113;28;20040;-77
2022/02/08 12:07:28;;;;;;;5.20;1.42;;;;;;;;;;5074448;28;20076;-78
2022/02/08 12:10:03;;;;;;;3.70;1.50;;;;;;;;;;5075355;28;20041;-77
2022/02/08 12:32:36;;;;;;;16.33;6.40;;;;;;;;;;5069561;28;20082;-77
2022/02/08 12:35:24;;;;;;;5.97;3.00;;;;;;;;;;5071413;28;20048;-76
2022/02/08 12:52:38;;;;;;;119.07;55.67;;;;;;;;;;5073252;28;20044;-75
2022/02/08 12:57:59;;;;;;;9.55;3.45;;;;;;;;;;5073441;28;20059;-76
2022/02/08 13:00:37;;;;;;;10.15;4.60;;;;;;;;;;5074385;28;20083;-76
2022/02/08 13:03:27;;;;;;;8.30;3.10;;;;;;;;;;5076587;28;20090;-75
2022/02/08 13:06:24;;;;;;;24.25;11.45;;;;;;;;;;5076659;28;20049;-76
2022/02/08 13:24:42;;;;;;;6.60;4.35;;;;;;;;;;5097706;28;20058;-78
2022/02/08 14:07:32;;;;;;;57.45;35.05;;;;;;;;;;4862144;27;8229395;-75
2022/02/08 14:10:14;;;;;;;19.75;10.60;;;;;;;;;;5152949;27;20474;-76
2022/02/08 14:13:34;;;;;;;29.50;16.50;;;;;;;;;;5153812;27;20039;-76
2022/02/08 14:16:16;;;;;;;8.38;5.05;;;;;;;;;;5152777;27;20039;-76
2022/02/08 14:19:02;;;;;;;10.55;7.40;;;;;;;;;;5153784;27;20066;-77
2022/02/08 14:21:38;;;;;;;56.70;37.65;;;;;;;;;;5153705;27;20039;-75
2022/02/08 14:24:16;;;;;;;8.90;3.33;;;;;;;;;;5153642;27;20050;-75
2022/02/08 14:29:42;;;;;;;24.77;16.58;;;;;;;;;;5152624;27;20062;-75
2022/02/08 14:32:24;;;;;;;29.15;18.40;;;;;;;;;;5153540;27;20114;-75
2022/02/08 15:08:26;;;;;;;16.33;10.20;;;;;;;;;;5130678;28;20047;-76
2022/02/08 15:10:55;;;;;;;10.35;7.97;;;;;;;;;;5132126;28;20047;-77
2022/02/08 15:13:26;;;;;;;23.52;16.38;;;;;;;;;;5132441;28;20096;-77
2022/02/08 15:16:17;;;;;;;98.35;79.82;;;;;;;;;;5131566;28;20447;-76
2022/02/08 15:18:43;;;;;;;46.20;33.55;;;;;;;;;;5116570;28;20043;-76
2022/02/08 15:21:15;;;;;;;19.13;11.27;;;;;;;;;;5118474;28;20096;-77
2022/02/08 15:23:41;;;;;;;11.77;8.18;;;;;;;;;;5117988;28;20093;-77
2022/02/08 15:26:08;;;;;;;18.63;10.27;;;;;;;;;;5117893;28;20438;-76
2022/02/08 15:28:36;;;;;;;14.55;8.80;;;;;;;;;;5118308;28;20078;-76
2022/02/08 15:31:03;;;;;;;19.33;10.25;;;;;;;;;;5117912;28;20082;-76
2022/02/08 15:33:29;;;;;;;98.22;52.72;;;;;;;;;;5117589;28;20118;-76
2022/02/08 15:35:56;;;;;;;75.38;37.88;;;;;;;;;;5116630;28;20507;-76
2022/02/08 15:38:28;;;;;;;24.70;13.68;;;;;;;;;;5117022;28;20476;-76
2022/02/08 15:40:55;;;;;;;23.33;14.20;;;;;;;;;;5117422;28;20044;-75
2022/02/08 15:43:21;;;;;;;12.88;6.07;;;;;;;;;;5116726;28;20046;-75
2022/02/08 15:45:53;;;;;;;20.05;10.00;;;;;;;;;;5116347;28;20438;-75
2022/02/08 15:48:22;;;;;;;38.92;19.50;;;;;;;;;;5117147;28;20040;-75
2022/02/08 15:50:59;;;;;;;63.83;30.80;;;;;;;;;;5116556;28;20040;-74
2022/02/08 15:53:33;;;;;;;20.30;10.63;;;;;;;;;;5117463;28;20055;-75
2022/02/08 16:05:06;;;;;;;15.30;7.88;;;;;;;;;;5115805;28;20127;-75
2022/02/08 16:07:02;;;;;;;9.93;5.60;;;;;;;;;;5115183;28;20055;-74
2022/02/08 16:09:35;;;;;;;22.20;11.63;;;;;;;;;;5117063;28;20104;-75
2022/02/08 16:12:21;;;;;;;13.25;7.70;;;;;;;;;;5117128;28;20119;-75
2022/02/08 16:15:05;;;;;;;12.55;7.80;;;;;;;;;;5117026;28;20050;-75
2022/02/08 16:17:41;;;;;;;18.60;12.68;;;;;;;;;;5115852;28;20658;-76
2022/02/08 16:20:16;;;;;;;13.80;9.98;;;;;;;;;;5116911;28;20035;-76
2022/02/08 16:25:38;;;;;;;18.33;7.93;;;;;;;;;;5115750;28;20557;-76
2022/02/08 16:28:20;;;;;;;34.58;15.95;;;;;;;;;;5116291;28;20071;-76
2022/02/08 16:31:21;;;;;;;13.88;7.38;;;;;;;;;;5116530;28;20050;-76
2022/02/08 16:53:53;;;;;;;9.67;5.40;;;;;;;;;;5131423;28;20046;-75
2022/02/08 16:56:25;;;;;;;11.65;4.90;;;;;;;;;;5131997;28;20798;-75
2022/02/08 16:58:53;;;;;;;7.70;4.68;;;;;;;;;;5132687;28;20070;-75
2022/02/08 17:01:24;;;;;;;7.63;4.95;;;;;;;;;;5131774;28;20099;-76
2022/02/08 17:03:51;;;;;;;10.68;5.53;;;;;;;;;;5132164;28;20092;-75
2022/02/08 17:06:22;;;;;;;5.20;3.03;;;;;;;;;;5132955;28;20352;-75
2022/02/08 17:08:51;;;;;;;6.82;3.85;;;;;;;;;;5132815;28;20075;-75
2022/02/08 17:11:25;;;;;;;5.68;2.95;;;;;;;;;;5131645;28;20044;-75
2022/02/08 17:16:56;;;;;;;8.45;4.38;;;;;;;;;;5132354;28;20061;-75
2022/02/08 17:47:40;;;;;;;8.80;3.70;;;;;;;;;;5131099;28;20383;-75
2022/02/08 17:50:08;;;;;;;10.63;5.82;;;;;;;;;;5131227;28;20077;-74
2022/02/08 17:52:35;;;;;;;19.15;10.43;;;;;;;;;;5131744;28;20079;-74
2022/02/08 17:55:04;;;;;;;16.00;8.55;;;;;;;;;;5131125;28;20044;-75
2022/02/08 17:57:30;;;;;;;12.88;7.63;;;;;;;;;;5130742;28;20487;-75
2022/02/08 17:59:57;;;;;;;14.27;8.23;;;;;;;;;;5128831;28;20075;-75
2022/02/08 18:02:24;;;;;;;15.77;8.80;;;;;;;;;;5118094;28;20122;-75
2022/02/08 18:04:53;;;;;;;23.33;12.93;;;;;;;;;;5118053;28;20043;-75
2022/02/08 18:07:21;;;;;;;15.95;9.10;;;;;;;;;;5118507;28;20048;-75
2022/02/08 18:09:49;;;;;;;18.05;9.27;;;;;;;;;;5118729;28;20050;-75
2022/02/08 18:12:18;;;;;;;15.60;9.00;;;;;;;;;;5118682;28;20108;-78
2022/02/08 18:14:50;;;;;;;16.92;8.95;;;;;;;;;;5118527;28;20050;-77
2022/02/08 18:17:21;;;;;;;14.50;7.13;;;;;;;;;;5119087;28;20047;-77
2022/02/08 18:19:53;;;;;;;12.48;6.68;;;;;;;;;;5118894;28;20043;-76
2022/02/08 18:22:28;;;;;;;20.52;12.77;;;;;;;;;;5118824;28;20043;-76
2022/02/08 18:25:28;;;;;;;20.33;10.65;;;;;;;;;;5117599;28;20066;-77
2022/02/08 19:03:21;;;;;;;7.95;3.35;;;;;;;;;;5116136;28;20114;-74
2022/02/08 19:09:21;;;;;;;8.32;4.47;;;;;;;;;;5116047;28;20483;-74
2022/02/08 19:11:59;;;;;;;13.57;7.32;;;;;;;;;;5115900;28;20073;-74
2022/02/08 19:17:20;;;;;;;10.23;5.05;;;;;;;;;;5115965;28;20089;-75
2022/02/08 19:19:53;;;;;;;10.80;5.43;;;;;;;;;;5116506;28;20049;-74
2022/02/08 19:22:22;;;;;;;7.68;3.67;;;;;;;;;;5116564;28;20067;-74
2022/02/08 19:24:49;;;;;;;8.45;3.45;;;;;;;;;;5115644;28;20130;-75
2022/02/08 19:27:17;;;;;;;5.78;2.90;;;;;;;;;;5116301;28;20130;-74
2022/02/08 19:29:44;;;;;;;6.65;3.30;;;;;;;;;;5115609;28;20039;-74
2022/02/08 19:32:12;;;;;;;4.30;2.05;;;;;;;;;;5115153;28;20525;-75
2022/02/08 19:34:40;;;;;;;3.08;2.08;;;;;;;;;;5115213;28;20127;-74
2022/02/08 19:37:08;;;;;;;4.38;1.95;;;;;;;;;;5116190;28;20127;-74
2022/02/08 19:39:36;;;;;;;5.22;1.80;;;;;;;;;;5115239;28;20059;-75
2022/02/08 19:42:03;;;;;;;28.13;10.45;;;;;;;;;;5114984;28;20107;-75
2022/02/08 19:44:30;;;;;;;18.48;7.05;;;;;;;;;;5116082;28;20119;-74
2022/02/08 19:46:58;;;;;;;14.32;4.97;;;;;;;;;;5105370;28;20524;-74
2022/02/08 19:49:26;;;;;;;15.85;5.97;;;;;;;;;;5093894;28;20488;-74
2022/02/08 19:51:53;;;;;;;11.15;4.65;;;;;;;;;;5095644;28;20075;-74
2022/02/08 19:54:23;;;;;;;9.00;3.30;;;;;;;;;;5094579;28;20444;-75
2022/02/08 19:56:54;;;;;;;7.32;2.45;;;;;;;;;;5094261;28;20036;-74
2022/02/08 19:59:32;;;;;;;5.50;2.50;;;;;;;;;;5095375;28;20044;-74
2022/02/08 20:01:59;;;;;;;5.60;2.50;;;;;;;;;;5094333;28;20036;-75
2022/02/08 20:04:27;;;;;;;4.95;3.10;;;;;;;;;;5095392;28;20047;-74
2022/02/08 20:06:57;;;;;;;6.05;2.83;;;;;;;;;;5095226;28;20044;-75
2022/02/08 20:09:24;;;;;;;5.70;2.78;;;;;;;;;;5094872;28;20131;-75
2022/02/08 20:11:51;;;;;;;3.13;1.83;;;;;;;;;;5095452;28;20067;-75
2022/02/08 20:14:17;;;;;;;5.35;2.10;;;;;;;;;;5095122;28;20072;-74
2022/02/08 20:16:44;;;;;;;4.05;2.30;;;;;;;;;;5094305;28;20082;-74
2022/02/08 20:19:13;;;;;;;4.45;2.08;;;;;;;;;;5095092;28;20136;-74
2022/02/08 20:21:41;;;;;;;4.43;1.50;;;;;;;;;;5093956;28;20126;-74
2022/02/08 20:24:12;;;;;;;2.67;1.10;;;;;;;;;;5094735;28;20040;-76
2022/02/08 20:26:53;;;;;;;3.13;1.08;;;;;;;;;;5095097;28;20040;-74
2022/02/08 20:29:24;;;;;;;4.25;1.17;;;;;;;;;;5094819;28;20044;-74